createdAt,value
2022-10-24T00:01:31.800Z,12.10
2022-10-24T00:06:34.314Z,12.40
2022-10-24T00:11:38.385Z,11.30
2022-10-24T00:16:40.813Z,12.60
2022-10-24T00:21:43.263Z,13.20
2022-10-24T00:26:45.696Z,12.60
2022-10-24T00:31:49.039Z,12.90
2022-10-24T00:36:51.533Z,12.70
2022-10-24T00:41:56.658Z,13.10
2022-10-24T00:47:01.792Z,12.10
2022-10-24T00:52:08.874Z,11.90
2022-10-24T00:57:36.290Z,11.50
2022-10-24T01:02:39.253Z,11.10
2022-10-24T01:08:06.710Z,11.50
2022-10-24T01:13:46.990Z,11.20
2022-10-24T01:19:04.759Z,12.20
2022-10-24T01:24:16.245Z,11.80
2022-10-24T01:29:57.387Z,11.90
2022-10-24T01:35:07.773Z,12.00
2022-10-24T01:40:23.838Z,10.70
2022-10-24T01:45:33.375Z,12.40
2022-10-24T01:50:39.053Z,12.10
2022-10-24T01:55:43.407Z,13.10
2022-10-24T02:00:47.982Z,13.90
2022-10-24T02:05:56.443Z,15.10
2022-10-24T02:11:02.237Z,15.40
2022-10-24T02:16:05.824Z,14.50
2022-10-24T02:21:26.986Z,14.30
2022-10-24T02:26:38.647Z,16.80
2022-10-24T02:31:47.100Z,13.80
2022-10-24T02:36:53.570Z,15.60
2022-10-24T02:41:58.249Z,14.90
2022-10-24T02:47:04.207Z,16.40
2022-10-24T02:52:07.752Z,15.30
2022-10-24T02:57:10.730Z,14.10
2022-10-24T03:02:13.206Z,14.10
2022-10-24T03:07:16.255Z,15.60
2022-10-24T03:12:19.037Z,15.60
2022-10-24T03:17:21.814Z,16.10
2022-10-24T03:22:27.490Z,15.70
2022-10-24T03:27:34.266Z,15.90
2022-10-24T03:32:36.709Z,16.20
2022-10-24T03:37:39.345Z,13.90
2022-10-24T03:42:41.993Z,16.90
2022-10-24T03:47:44.581Z,15.50
2022-10-24T03:52:47.511Z,17.10
2022-10-24T03:57:50.184Z,16.10
2022-10-24T04:02:52.873Z,17.90
2022-10-24T04:07:55.482Z,18.10
2022-10-24T04:12:57.954Z,18.20
2022-10-24T04:18:00.459Z,17.80
2022-10-24T04:23:04.502Z,15.90
2022-10-24T04:28:07.339Z,16.30
2022-10-24T04:33:09.772Z,16.80
2022-10-24T04:38:12.177Z,15.30
2022-10-24T04:43:14.809Z,14.70
2022-10-24T04:48:17.472Z,15.90
2022-10-24T04:53:20.144Z,14.90
2022-10-24T04:58:22.788Z,15.20
2022-10-24T05:03:25.223Z,15.20
2022-10-24T05:08:28.236Z,13.80
2022-10-24T05:13:34.328Z,14.90
2022-10-24T05:18:39.211Z,12.90
2022-10-24T05:23:41.959Z,14.10
2022-10-24T05:28:46.652Z,14.40
2022-10-24T05:33:52.645Z,16.30
2022-10-24T05:38:55.889Z,15.20
2022-10-24T05:43:58.430Z,15.30
2022-10-24T05:49:00.852Z,13.70
2022-10-24T05:54:03.750Z,14.80
2022-10-24T05:59:06.508Z,15.80
2022-10-24T06:04:12.820Z,13.90
2022-10-24T06:09:16.488Z,14.70
2022-10-24T06:14:19.142Z,15.20
2022-10-24T06:19:22.065Z,14.20
2022-10-24T06:24:24.539Z,15.60
2022-10-24T06:29:27.028Z,14.40
2022-10-24T06:34:29.761Z,14.30
2022-10-24T06:39:32.248Z,14.90
2022-10-24T06:44:34.886Z,14.70
2022-10-24T06:49:37.337Z,14.10
2022-10-24T06:54:41.058Z,14.90
2022-10-24T06:59:44.737Z,14.10
2022-10-24T07:04:47.568Z,16.00
2022-10-24T07:09:56.026Z,14.90
2022-10-24T07:14:58.415Z,15.60
2022-10-24T07:20:00.919Z,12.80
2022-10-24T07:25:05.024Z,17.20
2022-10-24T07:30:09.045Z,14.60
2022-10-24T07:35:13.174Z,13.20
2022-10-24T07:40:15.759Z,17.40
2022-10-24T07:45:18.320Z,14.30
2022-10-24T07:50:21.039Z,16.80
2022-10-24T07:55:23.473Z,16.20
2022-10-24T08:00:25.980Z,18.40
2022-10-24T08:05:28.648Z,18.20
2022-10-24T08:10:31.264Z,19.20
2022-10-24T08:15:33.680Z,16.20
2022-10-24T08:20:36.173Z,18.50
2022-10-24T08:25:42.005Z,20.70
2022-10-24T08:30:44.419Z,20.30
2022-10-24T08:35:46.928Z,20.30
2022-10-24T08:40:49.795Z,21.20
2022-10-24T08:46:29.968Z,19.80
2022-10-24T08:51:53.927Z,22.70
2022-10-24T08:56:59.714Z,22.40
2022-10-24T09:02:13.524Z,21.20
2022-10-24T09:07:20.185Z,20.80
2022-10-24T09:12:24.086Z,26.20
2022-10-24T09:17:35.240Z,21.80
2022-10-24T09:22:39.554Z,23.10
2022-10-24T09:27:44.988Z,21.10
2022-10-24T09:32:48.220Z,21.50
2022-10-24T09:38:31.862Z,22.20
2022-10-24T09:43:43.364Z,19.40
2022-10-24T09:48:57.203Z,20.70
2022-10-24T09:54:07.752Z,19.90
2022-10-24T09:59:27.012Z,19.90
2022-10-24T10:04:29.750Z,24.80
2022-10-24T10:09:34.950Z,23.00
2022-10-24T10:14:41.437Z,23.70
2022-10-24T10:19:48.104Z,22.70
2022-10-24T10:24:50.764Z,19.70
2022-10-24T10:30:11.771Z,18.90
2022-10-24T10:35:36.715Z,19.20
2022-10-24T10:40:46.701Z,17.10
2022-10-24T10:46:28.096Z,20.80
2022-10-24T10:51:55.633Z,20.90
2022-10-24T10:57:04.117Z,20.20
2022-10-24T11:02:31.905Z,18.50
2022-10-24T11:07:44.987Z,18.90
2022-10-24T11:12:48.887Z,20.40
2022-10-24T11:18:16.049Z,19.90
2022-10-24T11:23:40.352Z,21.40
2022-10-24T11:29:10.871Z,20.70
2022-10-24T11:34:24.763Z,20.30
2022-10-24T11:39:37.623Z,20.50
2022-10-24T11:45:18.263Z,21.70
2022-10-24T11:50:48.043Z,18.10
2022-10-24T11:55:56.903Z,19.20
2022-10-24T12:01:22.194Z,21.40
2022-10-24T12:06:52.623Z,20.40
2022-10-24T12:12:36.768Z,22.90
2022-10-24T12:18:06.088Z,21.50
2022-10-24T12:23:21.152Z,18.90
2022-10-24T12:28:25.958Z,20.30
2022-10-24T12:33:29.041Z,23.70
2022-10-24T12:38:31.646Z,17.60
2022-10-24T12:43:44.949Z,21.80
2022-10-24T12:49:09.620Z,20.80
2022-10-24T12:54:12.232Z,23.50
2022-10-24T12:59:21.948Z,23.10
2022-10-24T13:05:02.497Z,23.20
2022-10-24T13:10:29.709Z,23.20
2022-10-24T13:15:52.361Z,21.60
2022-10-24T13:21:17.386Z,20.20
2022-10-24T13:26:38.691Z,19.80
2022-10-24T13:31:44.663Z,13.40
2022-10-24T13:36:52.146Z,21.90
2022-10-24T13:42:03.162Z,22.40
2022-10-24T13:47:11.218Z,22.20
2022-10-24T13:52:22.410Z,20.30
2022-10-24T13:57:37.839Z,22.60
2022-10-24T14:02:43.012Z,23.20
2022-10-24T14:07:45.800Z,22.80
2022-10-24T14:12:51.900Z,23.70
2022-10-24T14:17:58.243Z,19.10
2022-10-24T14:23:02.169Z,21.00
2022-10-24T14:28:15.998Z,19.20
2022-10-24T14:33:21.735Z,21.70
2022-10-24T14:38:25.826Z,21.50
2022-10-24T14:43:30.239Z,21.60
2022-10-24T14:48:33.083Z,24.70
2022-10-24T14:53:38.192Z,25.60
2022-10-24T14:58:41.283Z,25.10
2022-10-24T15:04:01.827Z,25.60
2022-10-24T15:09:10.338Z,22.40
2022-10-24T15:14:37.804Z,23.10
2022-10-24T15:19:40.297Z,24.40
2022-10-24T15:24:44.449Z,21.30
2022-10-24T15:29:46.969Z,20.40
2022-10-24T15:34:53.675Z,16.50
2022-10-24T15:39:56.359Z,17.40
2022-10-24T15:44:59.373Z,16.70
2022-10-24T15:50:01.793Z,15.50
2022-10-24T15:55:04.519Z,17.90
2022-10-24T16:00:07.589Z,19.40
2022-10-24T16:05:22.286Z,19.50
2022-10-24T16:10:24.706Z,15.70
2022-10-24T16:15:34.509Z,19.80
2022-10-24T16:20:37.111Z,19.50
2022-10-24T16:25:39.773Z,20.60
2022-10-24T16:30:42.402Z,22.00
2022-10-24T16:35:44.884Z,23.30
2022-10-24T16:40:48.709Z,23.90
2022-10-24T16:46:17.041Z,21.50
2022-10-24T16:51:25.679Z,22.40
2022-10-24T16:56:30.047Z,24.00
2022-10-24T17:01:36.006Z,25.80
2022-10-24T17:06:40.605Z,25.40
2022-10-24T17:11:45.841Z,24.80
2022-10-24T17:16:48.889Z,23.90
2022-10-24T17:21:52.065Z,24.10
2022-10-24T17:26:55.017Z,23.70
2022-10-24T17:31:59.027Z,23.00
2022-10-24T17:37:07.030Z,24.40
2022-10-24T17:42:12.267Z,18.10
2022-10-24T17:47:16.897Z,26.20
2022-10-24T17:52:23.779Z,25.50
2022-10-24T17:57:27.753Z,25.70
2022-10-24T18:02:30.425Z,26.40
2022-10-24T18:07:35.783Z,25.40
2022-10-24T18:12:40.115Z,28.80
2022-10-24T18:17:44.018Z,28.50
2022-10-24T18:22:46.914Z,28.80
2022-10-24T18:27:49.552Z,27.30
2022-10-24T18:32:51.968Z,26.90
2022-10-24T18:37:54.440Z,27.30
2022-10-24T18:43:07.432Z,24.50
2022-10-24T18:48:11.111Z,22.50
2022-10-24T18:53:22.892Z,25.60
2022-10-24T18:58:26.000Z,26.70
2022-10-24T19:03:33.406Z,25.60
2022-10-24T19:08:35.962Z,18.10
2022-10-24T19:13:38.476Z,18.00
2022-10-24T19:18:49.568Z,18.60
2022-10-24T19:23:52.592Z,15.30
2022-10-24T19:28:55.038Z,16.50
2022-10-24T19:33:57.926Z,16.60
2022-10-24T19:39:00.440Z,17.70
2022-10-24T19:44:04.420Z,18.90
2022-10-24T19:49:07.255Z,15.70
2022-10-24T19:54:11.724Z,15.30
2022-10-24T19:59:14.381Z,16.40
2022-10-24T20:04:19.413Z,22.00
2022-10-24T20:09:21.926Z,22.30
2022-10-24T20:14:24.847Z,22.60
2022-10-24T20:19:27.292Z,21.40
2022-10-24T20:24:30.666Z,21.10
2022-10-24T20:29:35.443Z,21.30
2022-10-24T20:34:38.045Z,15.80
2022-10-24T20:39:40.501Z,13.40
2022-10-24T20:44:42.924Z,9.80
2022-10-24T20:49:45.323Z,10.50
2022-10-24T20:54:47.963Z,10.30
2022-10-24T20:59:50.454Z,10.70
2022-10-24T21:04:53.026Z,9.80
2022-10-24T21:09:55.504Z,9.50
2022-10-24T21:14:57.925Z,9.80
2022-10-24T21:20:00.335Z,10.20
2022-10-24T21:25:02.917Z,9.20
2022-10-24T21:30:08.884Z,10.90
2022-10-24T21:35:14.936Z,11.80
2022-10-24T21:40:18.135Z,10.70
2022-10-24T21:45:20.837Z,10.10
2022-10-24T21:50:23.361Z,10.40
2022-10-24T21:55:25.804Z,9.40
2022-10-24T22:00:28.275Z,10.50
2022-10-24T22:05:30.689Z,11.10
2022-10-24T22:10:33.142Z,8.80
2022-10-24T22:15:35.607Z,10.70
2022-10-24T22:20:38.120Z,9.80
2022-10-24T22:25:40.575Z,11.10
2022-10-24T22:30:45.719Z,12.30
2022-10-24T22:35:58.324Z,12.50
2022-10-24T22:41:01.081Z,11.50
2022-10-24T22:46:22.685Z,11.90
2022-10-24T22:51:25.423Z,12.80
2022-10-24T22:56:33.205Z,12.30
2022-10-24T23:01:48.361Z,13.60
2022-10-24T23:06:57.983Z,12.40
2022-10-24T23:12:00.732Z,11.20
2022-10-24T23:17:03.450Z,10.60
2022-10-24T23:27:43.481Z,12.10
2022-10-24T23:32:48.328Z,10.10
2022-10-24T23:37:52.751Z,10.80
2022-10-24T23:42:55.773Z,9.50
2022-10-24T23:48:16.721Z,12.00
2022-10-24T23:53:38.052Z,9.60
2022-10-24T23:58:40.479Z,12.10
